createdAt,value
2022-09-20T00:01:27.491Z,89.90
2022-09-20T00:03:59.494Z,88.90
2022-09-20T00:06:30.074Z,89.00
2022-09-20T00:08:59.592Z,89.20
2022-09-20T00:11:30.261Z,89.10
2022-09-20T00:14:00.405Z,88.90
2022-09-20T00:16:30.970Z,89.00
2022-09-20T00:19:03.931Z,89.00
2022-09-20T00:21:34.770Z,89.00
2022-09-20T00:24:03.494Z,88.90
2022-09-20T00:26:31.629Z,88.90
2022-09-20T00:29:00.313Z,89.00
2022-09-20T00:31:28.538Z,89.10
2022-09-20T00:34:15.426Z,88.90
2022-09-20T00:36:46.338Z,89.00
2022-09-20T00:39:16.482Z,88.90
2022-09-20T00:41:45.361Z,89.00
2022-09-20T00:44:47.620Z,89.10
2022-09-20T00:47:22.818Z,88.50
2022-09-20T00:49:53.135Z,88.90
2022-09-20T00:52:23.874Z,89.00
2022-09-20T00:54:52.193Z,89.20
2022-09-20T00:57:20.518Z,89.10
2022-09-20T00:59:50.603Z,89.00
2022-09-20T01:02:25.040Z,89.10
2022-09-20T01:04:54.233Z,89.10
2022-09-20T01:07:24.006Z,89.10
2022-09-20T01:09:54.153Z,89.00
2022-09-20T01:12:25.049Z,89.10
2022-09-20T01:14:55.281Z,89.10
2022-09-20T01:17:26.824Z,89.10
2022-09-20T01:20:09.100Z,89.20
2022-09-20T01:22:50.076Z,89.10
2022-09-20T01:25:28.745Z,89.00
2022-09-20T01:27:58.683Z,89.10
2022-09-20T01:30:34.939Z,89.10
2022-09-20T01:33:11.016Z,89.00
2022-09-20T01:35:40.817Z,89.10
2022-09-20T01:38:29.917Z,89.30
2022-09-20T01:41:05.053Z,89.10
2022-09-20T01:43:38.120Z,89.30
2022-09-20T01:46:20.341Z,89.40
2022-09-20T01:48:51.540Z,89.30
2022-09-20T01:52:01.283Z,89.40
2022-09-20T01:55:00.166Z,89.10
2022-09-20T01:58:06.795Z,89.10
2022-09-20T02:00:53.957Z,88.80
2022-09-20T02:03:57.395Z,88.90
2022-09-20T02:06:49.267Z,88.90
2022-09-20T02:09:37.940Z,89.20
2022-09-20T02:12:33.612Z,89.00
2022-09-20T02:15:10.547Z,88.90
2022-09-20T02:17:53.987Z,89.10
2022-09-20T02:20:34.348Z,89.10
2022-09-20T02:23:17.421Z,89.10
2022-09-20T02:26:04.102Z,88.90
2022-09-20T02:28:49.463Z,89.00
2022-09-20T02:31:29.210Z,89.40
2022-09-20T02:34:53.185Z,89.20
2022-09-20T02:37:48.450Z,89.10
2022-09-20T02:40:28.226Z,89.10
2022-09-20T02:43:04.848Z,89.20
2022-09-20T02:45:41.039Z,89.40
2022-09-20T02:48:09.311Z,89.50
2022-09-20T02:50:47.166Z,89.40
2022-09-20T02:53:32.880Z,89.30
2022-09-20T02:56:09.970Z,89.30
2022-09-20T02:58:48.318Z,89.50
2022-09-20T03:01:27.432Z,89.30
2022-09-20T03:04:03.875Z,89.10
2022-09-20T03:06:44.164Z,89.10
2022-09-20T03:09:18.419Z,89.20
2022-09-20T03:11:57.679Z,89.30
2022-09-20T03:14:29.388Z,89.10
2022-09-20T03:17:07.476Z,89.10
2022-09-20T03:19:48.927Z,89.00
2022-09-20T03:22:28.464Z,89.00
2022-09-20T03:25:16.636Z,88.90
2022-09-20T03:27:51.077Z,88.90
2022-09-20T03:30:30.625Z,89.00
2022-09-20T03:33:07.427Z,88.80
2022-09-20T03:35:50.316Z,88.90
2022-09-20T03:38:40.321Z,88.70
2022-09-20T03:41:38.809Z,88.50
2022-09-20T03:44:37.224Z,88.50
2022-09-20T03:47:15.068Z,88.70
2022-09-20T03:50:01.825Z,88.90
2022-09-20T03:53:29.866Z,88.70
2022-09-20T03:56:24.083Z,88.90
2022-09-20T03:59:15.468Z,88.90
2022-09-20T04:02:05.321Z,88.90
2022-09-20T04:04:41.090Z,89.00
2022-09-20T04:07:21.255Z,89.10
2022-09-20T04:10:03.448Z,90.00
2022-09-20T04:12:44.414Z,89.10
2022-09-20T04:15:25.281Z,89.10
2022-09-20T04:17:59.843Z,88.90
2022-09-20T04:20:36.191Z,88.90
2022-09-20T04:23:15.854Z,88.90
2022-09-20T04:25:48.782Z,88.60
2022-09-20T04:28:24.763Z,88.90
2022-09-20T04:30:58.068Z,88.80
2022-09-20T04:33:32.894Z,88.90
2022-09-20T04:36:28.699Z,89.00
2022-09-20T04:39:06.634Z,88.90
2022-09-20T04:42:23.660Z,88.90
2022-09-20T04:45:51.857Z,88.90
2022-09-20T04:49:06.190Z,88.90
2022-09-20T04:52:04.221Z,88.80
2022-09-20T04:55:15.391Z,88.90
2022-09-20T04:58:22.480Z,88.80
2022-09-20T05:01:37.709Z,88.90
2022-09-20T05:04:33.947Z,89.00
2022-09-20T05:07:28.128Z,89.10
2022-09-20T05:10:28.576Z,89.10
2022-09-20T05:13:17.011Z,89.10
2022-09-20T05:15:56.696Z,89.10
2022-09-20T05:19:02.281Z,89.10
2022-09-20T05:21:53.459Z,89.20
2022-09-20T05:24:47.426Z,89.40
2022-09-20T05:27:30.800Z,89.40
2022-09-20T05:30:06.993Z,89.70
2022-09-20T05:32:46.595Z,89.80
2022-09-20T05:35:23.143Z,89.80
2022-09-20T05:37:59.256Z,89.90
2022-09-20T05:40:33.947Z,90.00
2022-09-20T05:43:11.943Z,90.00
2022-09-20T05:45:58.794Z,90.10
2022-09-20T05:48:40.716Z,90.10
2022-09-20T05:51:20.798Z,90.20
2022-09-20T05:54:25.671Z,90.20
2022-09-20T05:57:07.116Z,90.00
2022-09-20T05:59:49.764Z,90.20
2022-09-20T06:02:28.338Z,90.10
2022-09-20T06:05:03.565Z,90.10
2022-09-20T06:07:46.623Z,90.20
2022-09-20T06:10:34.678Z,90.30
2022-09-20T06:13:12.158Z,90.20
2022-09-20T06:15:50.974Z,90.30
2022-09-20T06:18:26.030Z,90.30
2022-09-20T06:21:08.752Z,90.40
2022-09-20T06:23:38.018Z,90.30
2022-09-20T06:26:11.578Z,90.30
2022-09-20T06:28:42.661Z,90.20
2022-09-20T06:31:12.160Z,90.30
2022-09-20T06:33:45.497Z,90.40
2022-09-20T06:36:37.826Z,90.30
2022-09-20T06:39:31.675Z,90.10
2022-09-20T06:42:00.633Z,90.20
2022-09-20T06:44:29.080Z,90.30
2022-09-20T06:46:57.204Z,90.20
2022-09-20T06:49:28.746Z,90.20
2022-09-20T06:51:58.812Z,90.20
2022-09-20T06:54:27.572Z,90.20
2022-09-20T06:56:55.810Z,90.40
2022-09-20T06:59:24.315Z,90.40
2022-09-20T07:01:52.396Z,90.40
2022-09-20T07:04:22.627Z,90.50
2022-09-20T07:06:50.980Z,90.50
2022-09-20T07:09:20.954Z,90.50
2022-09-20T07:11:49.499Z,90.50
2022-09-20T07:14:18.951Z,90.40
2022-09-20T07:16:47.440Z,90.30
2022-09-20T07:19:16.495Z,90.30
2022-09-20T07:21:44.950Z,90.30
2022-09-20T07:24:14.609Z,90.20
2022-09-20T07:26:56.287Z,90.20
2022-09-20T07:29:25.243Z,90.10
2022-09-20T07:31:53.821Z,90.20
2022-09-20T07:34:21.874Z,90.00
2022-09-20T07:36:50.307Z,90.00
2022-09-20T07:39:18.657Z,90.00
2022-09-20T07:41:51.121Z,90.00
2022-09-20T07:44:25.329Z,89.70
2022-09-20T07:46:54.669Z,89.50
2022-09-20T07:49:24.093Z,89.30
2022-09-20T07:51:52.390Z,89.20
2022-09-20T07:54:21.409Z,89.10
2022-09-20T07:56:51.162Z,89.00
2022-09-20T07:59:19.243Z,88.60
2022-09-20T08:01:47.542Z,88.90
2022-09-20T08:04:16.016Z,88.60
2022-09-20T08:06:46.122Z,88.60
2022-09-20T08:09:15.171Z,88.60
2022-09-20T08:11:45.017Z,88.40
2022-09-20T08:14:17.151Z,88.20
2022-09-20T08:16:47.712Z,88.20
2022-09-20T08:19:18.107Z,88.40
2022-09-20T08:21:46.904Z,88.30
2022-09-20T08:24:16.436Z,88.40
2022-09-20T08:26:45.738Z,88.40
2022-09-20T08:29:15.843Z,88.40
2022-09-20T08:31:44.740Z,88.30
2022-09-20T08:34:15.171Z,88.10
2022-09-20T08:36:46.745Z,88.00
2022-09-20T08:42:14.290Z,87.80
2022-09-20T08:45:00.707Z,87.30
2022-09-20T08:47:32.103Z,86.90
2022-09-20T08:50:09.033Z,87.00
2022-09-20T08:52:40.629Z,87.80
2022-09-20T08:55:17.342Z,86.80
2022-09-20T08:57:49.653Z,86.70
2022-09-20T09:00:21.964Z,86.50
2022-09-20T09:02:53.269Z,86.00
2022-09-20T09:05:32.632Z,86.10
2022-09-20T09:08:04.712Z,85.60
2022-09-20T09:10:42.537Z,86.00
2022-09-20T09:13:20.056Z,85.70
2022-09-20T09:15:57.379Z,85.40
2022-09-20T09:18:34.853Z,85.10
2022-09-20T09:21:05.067Z,85.00
2022-09-20T09:23:42.232Z,85.10
2022-09-20T09:26:20.777Z,84.40
2022-09-20T09:29:08.808Z,84.60
2022-09-20T09:31:40.173Z,84.90
2022-09-20T09:34:25.083Z,84.80
2022-09-20T09:36:54.421Z,84.40
2022-09-20T09:39:28.028Z,84.90
2022-09-20T09:41:56.850Z,85.20
2022-09-20T09:44:27.730Z,85.70
2022-09-20T09:46:58.485Z,85.60
2022-09-20T09:49:27.673Z,85.30
2022-09-20T09:52:08.505Z,85.00
2022-09-20T09:54:40.042Z,84.20
2022-09-20T09:57:30.584Z,84.60
2022-09-20T10:00:19.264Z,84.10
2022-09-20T10:03:26.928Z,84.40
2022-09-20T10:06:12.708Z,83.50
2022-09-20T10:08:52.165Z,84.10
2022-09-20T10:11:31.904Z,83.90
2022-09-20T10:14:12.581Z,83.90
2022-09-20T10:16:58.861Z,84.20
2022-09-20T10:19:41.868Z,84.40
2022-09-20T10:22:20.076Z,84.60
2022-09-20T10:24:55.324Z,84.60
2022-09-20T10:27:36.149Z,84.80
2022-09-20T10:30:11.751Z,85.30
2022-09-20T10:33:01.001Z,85.50
2022-09-20T10:35:41.374Z,84.60
2022-09-20T10:38:19.860Z,85.40
2022-09-20T10:41:22.134Z,84.80
2022-09-20T10:44:10.282Z,84.20
2022-09-20T10:46:51.602Z,83.70
2022-09-20T10:49:27.438Z,83.10
2022-09-20T10:52:16.204Z,83.10
2022-09-20T10:55:04.096Z,82.90
2022-09-20T10:57:51.032Z,82.70
2022-09-20T11:00:23.218Z,82.50
2022-09-20T11:03:05.677Z,83.30
2022-09-20T11:05:46.500Z,83.30
2022-09-20T11:08:23.185Z,83.80
2022-09-20T11:10:55.302Z,83.80
2022-09-20T11:13:28.767Z,83.10
2022-09-20T11:16:05.760Z,82.50
2022-09-20T11:18:40.262Z,82.50
2022-09-20T11:21:18.926Z,82.70
2022-09-20T11:23:53.770Z,82.40
2022-09-20T11:26:27.985Z,81.50
2022-09-20T11:29:02.444Z,81.10
2022-09-20T11:31:36.567Z,81.00
2022-09-20T11:34:13.542Z,80.70
2022-09-20T11:36:49.488Z,79.30
2022-09-20T11:39:23.357Z,78.50
2022-09-20T11:41:55.782Z,77.80
2022-09-20T11:44:24.647Z,77.70
2022-09-20T11:46:56.835Z,77.40
2022-09-20T11:49:28.957Z,77.10
2022-09-20T11:52:25.240Z,77.20
2022-09-20T11:55:28.274Z,76.30
2022-09-20T11:58:05.070Z,76.30
2022-09-20T12:00:36.265Z,76.70
2022-09-20T12:03:08.063Z,77.50
2022-09-20T12:05:38.971Z,77.70
2022-09-20T12:08:18.959Z,77.70
2022-09-20T12:10:58.278Z,78.40
2022-09-20T12:13:29.065Z,78.60
2022-09-20T12:16:04.047Z,79.20
2022-09-20T12:18:49.052Z,78.90
2022-09-20T12:21:19.393Z,78.70
2022-09-20T12:24:23.839Z,79.50
2022-09-20T12:26:57.065Z,78.80
2022-09-20T12:29:55.227Z,79.30
2022-09-20T12:32:50.596Z,78.40
2022-09-20T12:35:59.808Z,78.00
2022-09-20T12:38:41.873Z,78.10
2022-09-20T12:41:14.285Z,78.50
2022-09-20T12:43:57.610Z,78.40
2022-09-20T12:46:42.292Z,77.50
2022-09-20T12:49:56.820Z,78.40
2022-09-20T12:52:54.224Z,77.80
2022-09-20T12:55:46.760Z,77.90
2022-09-20T12:58:44.321Z,77.50
2022-09-20T13:01:36.255Z,79.00
2022-09-20T13:04:42.860Z,79.00
2022-09-20T13:07:41.289Z,79.70
2022-09-20T13:10:29.170Z,79.40
2022-09-20T13:13:02.302Z,79.50
2022-09-20T13:15:32.305Z,80.10
2022-09-20T13:18:03.498Z,80.00
2022-09-20T13:20:35.280Z,78.60
2022-09-20T13:23:06.264Z,78.20
2022-09-20T13:25:35.563Z,77.50
2022-09-20T13:28:10.186Z,77.10
2022-09-20T13:30:42.406Z,75.80
2022-09-20T13:33:22.913Z,76.50
2022-09-20T13:35:54.627Z,72.70
2022-09-20T13:38:25.841Z,72.80
2022-09-20T13:41:01.077Z,72.40
2022-09-20T13:43:32.367Z,73.40
2022-09-20T13:46:07.753Z,71.80
2022-09-20T13:48:37.368Z,70.90
2022-09-20T13:51:15.881Z,70.20
2022-09-20T13:53:44.893Z,69.80
2022-09-20T13:56:20.709Z,69.10
2022-09-20T13:58:50.672Z,67.40
2022-09-20T14:01:25.105Z,68.10
2022-09-20T14:03:55.611Z,67.10
2022-09-20T14:06:29.623Z,66.90
2022-09-20T14:08:59.889Z,66.00
2022-09-20T14:11:31.063Z,64.30
2022-09-20T14:14:01.641Z,64.10
2022-09-20T14:16:32.478Z,63.90
2022-09-20T14:19:03.718Z,63.20
2022-09-20T14:21:34.845Z,62.80
2022-09-20T14:24:07.741Z,63.00
2022-09-20T14:26:37.698Z,62.80
2022-09-20T14:29:30.824Z,64.10
2022-09-20T14:32:01.448Z,63.30
2022-09-20T14:34:31.146Z,64.60
2022-09-20T14:37:08.013Z,64.90
2022-09-20T14:39:46.723Z,64.70
2022-09-20T14:42:21.424Z,66.60
2022-09-20T14:44:53.317Z,66.70
2022-09-20T14:47:29.855Z,67.30
2022-09-20T14:49:59.862Z,66.30
2022-09-20T14:52:39.000Z,66.30
2022-09-20T14:55:23.042Z,65.00
2022-09-20T14:57:52.086Z,65.70
2022-09-20T15:00:21.151Z,65.70
2022-09-20T15:02:49.813Z,65.40
2022-09-20T15:05:27.438Z,64.80
2022-09-20T15:07:56.733Z,62.60
2022-09-20T15:10:25.509Z,63.00
2022-09-20T15:12:54.000Z,62.70
2022-09-20T15:15:22.125Z,61.80
2022-09-20T15:17:50.750Z,61.30
2022-09-20T15:20:24.331Z,61.30
2022-09-20T15:22:54.584Z,60.90
2022-09-20T15:25:22.917Z,61.00
2022-09-20T15:27:52.245Z,62.20
2022-09-20T15:30:21.434Z,61.80
2022-09-20T15:32:49.636Z,61.80
2022-09-20T15:35:18.263Z,61.30
2022-09-20T15:37:46.525Z,61.30
2022-09-20T15:40:16.438Z,61.30
2022-09-20T15:42:46.419Z,61.40
2022-09-20T15:45:15.273Z,61.80
2022-09-20T15:47:43.737Z,61.80
2022-09-20T15:50:12.046Z,61.90
2022-09-20T15:52:42.038Z,62.30
2022-09-20T15:55:10.965Z,62.80
2022-09-20T15:57:42.457Z,62.90
2022-09-20T16:00:11.312Z,62.90
2022-09-20T16:02:40.223Z,64.00
2022-09-20T16:05:10.080Z,64.00
2022-09-20T16:07:38.750Z,63.30
2022-09-20T16:10:08.468Z,63.00
2022-09-20T16:12:36.957Z,63.80
2022-09-20T16:15:08.450Z,63.60
2022-09-20T16:17:54.180Z,62.60
2022-09-20T16:20:23.533Z,63.30
2022-09-20T16:22:51.965Z,63.20
2022-09-20T16:25:20.574Z,63.20
2022-09-20T16:27:49.112Z,62.70
2022-09-20T16:30:19.747Z,62.80
2022-09-20T16:32:48.237Z,62.90
2022-09-20T16:35:17.278Z,63.10
2022-09-20T16:37:45.754Z,63.60
2022-09-20T16:40:15.200Z,63.80
2022-09-20T16:42:52.067Z,63.80
2022-09-20T16:45:23.263Z,64.00
2022-09-20T16:47:51.843Z,63.80
2022-09-20T16:50:20.448Z,64.20
2022-09-20T16:52:48.484Z,64.40
2022-09-20T16:55:18.428Z,64.50
2022-09-20T16:57:49.460Z,64.60
2022-09-20T17:00:20.979Z,66.10
2022-09-20T17:02:52.931Z,65.40
2022-09-20T17:05:21.429Z,65.50
2022-09-20T17:07:49.874Z,65.90
2022-09-20T17:10:18.039Z,66.10
2022-09-20T17:12:48.248Z,66.00
2022-09-20T17:15:16.984Z,66.30
2022-09-20T17:17:45.056Z,66.30
2022-09-20T17:20:15.147Z,66.60
2022-09-20T17:22:43.866Z,66.90
2022-09-20T17:25:12.113Z,66.70
2022-09-20T17:27:40.286Z,66.80
2022-09-20T17:30:10.234Z,66.60
2022-09-20T17:32:38.373Z,66.70
2022-09-20T17:35:07.628Z,67.30
2022-09-20T17:37:37.974Z,67.70
2022-09-20T17:40:07.327Z,68.00
2022-09-20T17:42:35.675Z,68.50
2022-09-20T17:45:03.742Z,68.60
2022-09-20T17:47:31.789Z,68.80
2022-09-20T17:50:00.278Z,68.70
2022-09-20T17:52:28.471Z,68.50
2022-09-20T17:54:58.432Z,68.50
2022-09-20T17:57:26.456Z,68.80
2022-09-20T17:59:54.942Z,68.90
2022-09-20T18:02:23.399Z,69.20
2022-09-20T18:04:51.456Z,69.20
2022-09-20T18:07:19.524Z,69.50
2022-09-20T18:09:48.013Z,69.60
2022-09-20T18:12:20.813Z,69.80
2022-09-20T18:14:49.907Z,70.10
2022-09-20T18:17:17.952Z,71.10
2022-09-20T18:19:46.034Z,70.10
2022-09-20T18:22:14.239Z,70.30
2022-09-20T18:24:42.767Z,70.40
2022-09-20T18:27:10.791Z,70.70
2022-09-20T18:29:40.194Z,70.90
2022-09-20T18:32:09.291Z,71.30
2022-09-20T18:34:37.354Z,71.60
2022-09-20T18:37:10.100Z,71.70
2022-09-20T18:39:42.018Z,71.60
2022-09-20T18:42:11.433Z,71.90
2022-09-20T18:44:43.619Z,72.00
2022-09-20T18:47:11.876Z,72.10
2022-09-20T18:49:40.384Z,72.40
2022-09-20T18:52:10.733Z,72.50
2022-09-20T18:54:39.565Z,72.70
2022-09-20T18:57:10.586Z,72.80
2022-09-20T18:59:49.569Z,72.90
2022-09-20T19:02:45.201Z,72.80
2022-09-20T19:05:24.338Z,72.90
2022-09-20T19:08:00.962Z,72.90
2022-09-20T19:10:40.141Z,72.90
2022-09-20T19:13:28.217Z,73.00
2022-09-20T19:16:16.522Z,73.20
2022-09-20T19:19:03.803Z,73.40
2022-09-20T19:21:40.855Z,73.50
2022-09-20T19:24:19.366Z,73.70
2022-09-20T19:26:48.214Z,73.90
2022-09-20T19:29:20.475Z,74.10
2022-09-20T19:31:52.101Z,74.20
2022-09-20T19:34:23.108Z,74.30
2022-09-20T19:37:11.097Z,74.40
2022-09-20T19:39:53.670Z,74.50
2022-09-20T19:42:32.828Z,74.40
2022-09-20T19:45:08.351Z,74.40
2022-09-20T19:47:47.658Z,74.50
2022-09-20T19:50:26.632Z,74.50
2022-09-20T19:52:56.227Z,74.50
2022-09-20T19:55:25.532Z,74.50
2022-09-20T19:57:54.601Z,74.70
2022-09-20T20:00:24.242Z,74.70
2022-09-20T20:02:54.561Z,74.80
2022-09-20T20:05:25.641Z,75.00
2022-09-20T20:08:14.783Z,75.40
2022-09-20T20:10:53.264Z,75.70
2022-09-20T20:14:05.803Z,75.70
2022-09-20T20:16:43.020Z,75.80
2022-09-20T20:19:30.570Z,75.80
2022-09-20T20:22:03.783Z,75.80
2022-09-20T20:24:38.118Z,75.70
2022-09-20T20:27:06.272Z,75.70
2022-09-20T20:29:34.795Z,75.80
2022-09-20T20:32:03.311Z,75.90
2022-09-20T20:34:34.729Z,75.80
2022-09-20T20:37:02.787Z,76.10
2022-09-20T20:39:31.624Z,76.30
2022-09-20T20:42:02.295Z,76.50
2022-09-20T20:44:31.810Z,76.60
2022-09-20T20:46:59.900Z,76.80
2022-09-20T20:49:28.184Z,77.00
2022-09-20T20:51:57.818Z,78.00
2022-09-20T20:54:25.816Z,77.40
2022-09-20T20:56:53.875Z,77.40
2022-09-20T20:59:22.428Z,77.50
2022-09-20T21:01:50.981Z,77.50
2022-09-20T21:04:19.123Z,77.40
2022-09-20T21:06:47.466Z,77.50
2022-09-20T21:09:17.486Z,77.20
2022-09-20T21:11:48.300Z,77.30
2022-09-20T21:14:16.997Z,77.10
2022-09-20T21:16:45.591Z,76.90
2022-09-20T21:19:15.880Z,76.80
2022-09-20T21:21:45.548Z,76.80
2022-09-20T21:24:15.304Z,76.40
2022-09-20T21:26:46.114Z,76.30
2022-09-20T21:29:16.566Z,76.30
2022-09-20T21:31:47.164Z,76.30
2022-09-20T21:34:16.777Z,76.40
2022-09-20T21:36:46.073Z,76.50
2022-09-20T21:39:14.566Z,76.50
2022-09-20T21:41:44.685Z,76.50
2022-09-20T21:44:12.726Z,76.50
2022-09-20T21:46:42.673Z,76.50
2022-09-20T21:49:12.643Z,76.70
2022-09-20T21:51:42.636Z,76.50
2022-09-20T21:54:11.445Z,76.60
2022-09-20T21:56:40.857Z,76.60
2022-09-20T21:59:10.742Z,76.60
2022-09-20T22:01:41.252Z,76.50
2022-09-20T22:04:11.093Z,76.70
2022-09-20T22:06:41.034Z,76.50
2022-09-20T22:09:10.742Z,76.70
2022-09-20T22:11:41.330Z,76.80
2022-09-20T22:14:12.236Z,76.90
2022-09-20T22:16:42.237Z,77.00
2022-09-20T22:19:12.225Z,77.00
2022-09-20T22:21:42.776Z,77.00
2022-09-20T22:24:12.651Z,77.20
2022-09-20T22:26:42.972Z,77.30
2022-09-20T22:29:12.969Z,77.40
2022-09-20T22:31:45.404Z,77.30
2022-09-20T22:34:16.276Z,77.20
2022-09-20T22:36:44.720Z,77.20
2022-09-20T22:39:13.696Z,77.30
2022-09-20T22:41:43.088Z,77.50
2022-09-20T22:44:13.323Z,77.80
2022-09-20T22:46:41.400Z,77.70
2022-09-20T22:49:10.771Z,77.70
2022-09-20T22:51:39.752Z,77.70
2022-09-20T22:54:10.000Z,77.80
2022-09-20T22:56:40.092Z,77.70
2022-09-20T22:59:10.280Z,77.50
2022-09-20T23:01:43.013Z,77.50
2022-09-20T23:04:13.063Z,77.60
2022-09-20T23:06:43.679Z,77.40
2022-09-20T23:09:13.789Z,77.30
2022-09-20T23:11:43.017Z,77.50
2022-09-20T23:14:13.715Z,77.70
2022-09-20T23:16:44.011Z,77.70
2022-09-20T23:19:13.756Z,77.90
2022-09-20T23:21:43.243Z,78.10
2022-09-20T23:24:13.236Z,78.10
2022-09-20T23:26:42.903Z,78.10
2022-09-20T23:29:12.913Z,78.10
2022-09-20T23:31:46.182Z,78.20
2022-09-20T23:34:16.023Z,78.40
2022-09-20T23:36:45.846Z,78.50
2022-09-20T23:39:14.955Z,78.60
2022-09-20T23:41:48.340Z,78.70
2022-09-20T23:44:18.964Z,78.70
2022-09-20T23:46:48.803Z,78.60
2022-09-20T23:49:16.940Z,78.40
2022-09-20T23:51:45.421Z,78.30
2022-09-20T23:54:13.467Z,78.40
2022-09-20T23:56:43.227Z,78.50
2022-09-20T23:59:11.691Z,78.70
